Time;durP1;ratioP1;P1;durP2;ratioP2;P2;SDS_P1;SDS_P2;PMS_P1;PMS_P2;Temp;Humidity;BMP_temperature;BMP_pressure;BME280_temperature;BME280_humidity;BME280_pressure;Samples;Min_cycle;Max_cycle;Signal;HPM_P1;HPM_P2
2023/04/26 00:01:07;;;;;;;6.30;1.83;;;;;;;3.26;100.00;101125.78;5002109;28;20297;-47
2023/04/26 00:03:32;;;;;;;5.10;1.52;;;;;;;3.25;100.00;101129.28;5003727;28;20607;-50
2023/04/26 00:06:04;;;;;;;10.52;2.15;;;;;;;3.28;100.00;101131.94;5002995;28;20707;-49
2023/04/26 00:08:29;;;;;;;10.20;2.25;;;;;;;3.25;100.00;101131.06;5003159;28;20261;-49
2023/04/26 00:10:55;;;;;;;9.48;1.75;;;;;;;3.22;100.00;101131.09;5001437;28;20220;-47
2023/04/26 00:13:20;;;;;;;6.75;1.63;;;;;;;3.22;100.00;101134.59;5001421;28;20835;-50
2023/04/26 00:15:46;;;;;;;6.95;1.70;;;;;;;3.18;100.00;101135.50;5006104;28;20185;-49
2023/04/26 00:18:11;;;;;;;10.27;2.00;;;;;;;3.12;100.00;101134.63;4999599;28;20165;-49
2023/04/26 00:20:38;;;;;;;10.98;1.92;;;;;;;3.16;100.00;101128.44;5000844;28;20196;-49
2023/04/26 00:23:03;;;;;;;5.70;1.50;;;;;;;3.33;100.00;101131.06;4989916;28;20185;-48
2023/04/26 00:25:29;;;;;;;9.70;1.80;;;;;;;3.23;100.00;101139.00;4968107;28;20193;-49
2023/04/26 00:27:54;;;;;;;6.93;2.10;;;;;;;3.11;100.00;101131.13;5001128;28;20176;-50
2023/04/26 00:30:21;;;;;;;7.63;2.13;;;;;;;3.25;100.00;101142.53;4992847;28;20276;-47
2023/04/26 00:32:46;;;;;;;8.20;1.70;;;;;;;3.17;100.00;101141.69;4993069;28;20185;-48
2023/04/26 00:35:12;;;;;;;7.47;1.95;;;;;;;2.98;100.00;101135.56;5004916;28;20191;-48
2023/04/26 00:37:38;;;;;;;8.95;1.63;;;;;;;2.97;100.00;101135.56;4990277;28;20185;-50
2023/04/26 00:40:05;;;;;;;5.82;1.50;;;;;;;3.08;100.00;101139.97;5000400;28;20325;-49
2023/04/26 00:42:30;;;;;;;7.75;1.90;;;;;;;3.05;100.00;101139.06;5001753;28;20251;-48
2023/04/26 00:44:56;;;;;;;6.78;1.88;;;;;;;3.08;100.00;101144.34;4988632;28;20169;-49
2023/04/26 00:47:23;;;;;;;10.10;1.75;;;;;;;3.08;100.00;101134.66;4984263;28;20203;-50
2023/04/26 00:49:49;;;;;;;12.00;2.17;;;;;;;3.08;100.00;101139.06;4991263;28;20279;-50
2023/04/26 00:52:15;;;;;;;12.48;1.83;;;;;;;2.99;100.00;101133.78;4974304;28;20193;-47
2023/04/26 00:54:41;;;;;;;8.95;1.92;;;;;;;2.91;100.00;101144.41;4977373;28;20207;-48
2023/04/26 00:57:08;;;;;;;10.88;1.85;;;;;;;2.92;100.00;101138.22;5000093;28;20231;-49
2023/04/26 00:59:35;;;;;;;12.93;2.85;;;;;;;2.97;100.00;101141.72;4991118;28;20699;-49
2023/04/26 01:02:04;;;;;;;13.65;2.05;;;;;;;2.92;100.00;101154.09;4998263;28;20189;-49
2023/04/26 01:04:30;;;;;;;9.05;2.50;;;;;;;2.93;100.00;101147.94;4998869;28;20192;-49
2023/04/26 01:06:56;;;;;;;9.75;2.17;;;;;;;2.93;100.00;101150.56;4998226;28;20174;-49
2023/04/26 01:09:21;;;;;;;7.82;2.22;;;;;;;2.83;100.00;101154.97;4983891;28;20181;-49
2023/04/26 01:11:47;;;;;;;7.13;1.67;;;;;;;2.85;100.00;101162.94;4991028;28;20189;-51
2023/04/26 01:14:14;;;;;;;9.98;1.80;;;;;;;2.84;100.00;101162.06;4992933;28;20320;-50
2023/04/26 01:16:39;;;;;;;8.98;1.85;;;;;;;2.81;100.00;101162.03;4999916;28;20252;-48
2023/04/26 01:19:11;;;;;;;7.03;2.63;;;;;;;2.86;100.00;101172.63;5002863;28;20572;-48
2023/04/26 01:21:39;;;;;;;8.30;1.77;;;;;;;2.84;100.00;101162.06;4994988;28;20224;-49
2023/04/26 01:24:05;;;;;;;12.90;2.47;;;;;;;2.89;100.00;101162.03;4992920;28;20231;-47
2023/04/26 01:26:31;;;;;;;11.63;1.92;;;;;;;2.79;100.00;101171.75;4997390;28;20227;-49
2023/04/26 01:28:57;;;;;;;8.35;1.88;;;;;;;2.86;100.00;101173.53;5000329;28;20600;-48
2023/04/26 01:31:23;;;;;;;14.18;2.33;;;;;;;2.98;100.00;101159.38;5003288;28;20224;-49
2023/04/26 01:33:50;;;;;;;9.15;2.28;;;;;;;2.95;100.00;101169.06;4996803;28;20648;-49
2023/04/26 01:36:18;;;;;;;11.00;1.75;;;;;;;2.92;100.00;101169.09;4989327;28;20243;-48
2023/04/26 01:38:43;;;;;;;11.65;2.15;;;;;;;2.88;100.00;101179.66;5000045;28;20188;-48
2023/04/26 01:41:09;;;;;;;9.60;1.80;;;;;;;2.71;100.00;101173.50;4996016;28;20288;-48
2023/04/26 01:43:34;;;;;;;12.43;2.45;;;;;;;2.83;100.00;101167.34;4990321;28;20176;-46
2023/04/26 01:46:06;;;;;;;13.10;2.10;;;;;;;2.76;100.00;101169.13;5053021;27;20562;-46
2023/04/26 01:48:32;;;;;;;10.38;2.00;;;;;;;2.82;100.00;101163.81;5054926;28;20195;-47
2023/04/26 01:50:59;;;;;;;10.50;2.40;;;;;;;2.72;100.00;101177.94;5041132;28;20254;-45
2023/04/26 01:53:25;;;;;;;7.15;1.98;;;;;;;2.65;100.00;101166.47;5048796;28;20544;-48
2023/04/26 01:55:50;;;;;;;15.40;2.30;;;;;;;2.68;100.00;101176.16;5045086;28;20546;-49
2023/04/26 01:58:16;;;;;;;7.95;1.90;;;;;;;2.72;100.00;101167.34;5048852;28;20179;-48
2023/04/26 02:00:41;;;;;;;11.90;2.13;;;;;;;2.62;100.00;101158.53;5045508;28;20221;-48
2023/04/26 02:03:07;;;;;;;10.07;2.50;;;;;;;2.64;100.00;101171.75;5053649;28;20246;-49
2023/04/26 02:05:32;;;;;;;7.13;1.67;;;;;;;2.75;100.00;101166.47;5052115;28;20269;-50
2023/04/26 02:07:58;;;;;;;5.45;2.00;;;;;;;2.95;100.00;101177.94;5051570;28;20187;-48
2023/04/26 02:14:10;;;;;;;8.55;1.80;;;;;;;2.89;100.00;101164.69;5044495;28;20251;-49
2023/04/26 02:16:38;;;;;;;10.43;1.75;;;;;;;2.97;100.00;101162.88;5054286;28;20196;-46
2023/04/26 02:19:09;;;;;;;6.13;1.98;;;;;;;2.95;100.00;101164.69;5051396;28;20176;-51
2023/04/26 02:21:56;;;;;;;8.20;1.45;;;;;;;2.85;100.00;101177.03;5051429;28;20198;-48
2023/04/26 02:24:25;;;;;;;8.55;2.20;;;;;;;2.93;100.00;101171.75;5052527;28;20202;-48
2023/04/26 02:26:53;;;;;;;8.20;1.85;;;;;;;2.78;100.00;101174.41;5034810;28;20174;-47
2023/04/26 02:29:19;;;;;;;12.25;1.88;;;;;;;2.78;100.00;101172.63;5044021;28;20653;-46
2023/04/26 02:31:44;;;;;;;12.30;2.25;;;;;;;2.79;100.00;101179.69;5054087;28;20187;-50
2023/04/26 02:34:11;;;;;;;9.35;2.45;;;;;;;2.80;100.00;101175.25;5048607;28;20190;-47
2023/04/26 02:36:37;;;;;;;7.40;2.05;;;;;;;2.83;100.00;101180.56;5041508;28;20183;-48
2023/04/26 02:39:03;;;;;;;8.05;2.53;;;;;;;2.75;100.00;101177.03;5035775;28;20188;-48
2023/04/26 02:41:31;;;;;;;9.13;1.98;;;;;;;2.62;100.00;101173.50;5042501;28;20214;-49
2023/04/26 02:43:57;;;;;;;13.68;2.05;;;;;;;2.62;100.00;101179.72;5047755;28;20749;-47
2023/04/26 02:46:22;;;;;;;13.15;2.45;;;;;;;2.53;100.00;101184.97;5046954;28;20266;-50
2023/04/26 02:48:48;;;;;;;9.93;1.92;;;;;;;2.55;100.00;101184.97;5043619;28;20559;-49
2023/04/26 02:51:13;;;;;;;7.82;1.70;;;;;;;2.53;100.00;101176.16;5056965;28;20208;-49
2023/04/26 02:53:39;;;;;;;9.60;2.25;;;;;;;2.53;100.00;101187.63;5050983;28;20184;-47
2023/04/26 02:56:05;;;;;;;11.63;2.50;;;;;;;2.60;100.00;101185.84;5039809;28;20603;-50
2023/04/26 02:58:30;;;;;;;16.40;3.10;;;;;;;2.54;100.00;101189.41;5036347;28;20242;-49
2023/04/26 03:00:57;;;;;;;9.57;2.28;;;;;;;2.49;100.00;101188.50;5037721;28;20704;-47
2023/04/26 03:03:23;;;;;;;8.65;2.22;;;;;;;2.46;100.00;101191.16;5037641;28;20206;-47
2023/04/26 03:05:49;;;;;;;14.95;2.65;;;;;;;2.58;100.00;101177.03;5033698;28;20203;-47
2023/04/26 03:08:14;;;;;;;7.35;2.00;;;;;;;2.46;100.00;101176.16;5028678;28;20679;-47
2023/04/26 03:10:40;;;;;;;10.73;2.33;;;;;;;2.48;100.00;101177.03;5027665;28;20708;-47
2023/04/26 03:13:06;;;;;;;13.88;2.50;;;;;;;2.50;100.00;101177.03;5037118;28;20191;-49
2023/04/26 03:15:32;;;;;;;11.10;2.00;;;;;;;2.50;100.00;101182.34;5027415;28;20706;-50
2023/04/26 03:17:58;;;;;;;7.35;1.73;;;;;;;2.53;100.00;101187.63;5030002;28;20283;-49
2023/04/26 03:20:24;;;;;;;6.82;2.10;;;;;;;2.60;100.00;101189.41;5036799;28;20278;-49
2023/04/26 03:22:50;;;;;;;8.60;2.15;;;;;;;2.59;100.00;101178.81;5040678;28;20210;-46
2023/04/26 03:25:16;;;;;;;10.45;1.77;;;;;;;2.54;100.00;101177.94;5024700;28;20477;-49
2023/04/26 03:27:42;;;;;;;5.22;1.75;;;;;;;2.50;100.00;101192.03;5028850;28;20241;-49
2023/04/26 03:30:08;;;;;;;7.18;2.00;;;;;;;2.46;100.00;101191.16;5032008;28;20200;-48
2023/04/26 03:32:34;;;;;;;10.05;2.13;;;;;;;2.42;100.00;101184.97;5036918;28;20478;-48
2023/04/26 03:35:01;;;;;;;8.93;2.53;;;;;;;2.40;100.00;101189.38;5031884;28;20196;-49
2023/04/26 03:37:27;;;;;;;7.47;1.90;;;;;;;2.49;100.00;101191.13;5033940;28;20180;-48
2023/04/26 03:39:58;;;;;;;10.50;2.13;;;;;;;2.38;100.00;101185.84;5040047;28;20218;-50
2023/04/26 03:42:24;;;;;;;6.13;1.70;;;;;;;2.43;100.00;101186.75;5015246;28;20173;-50
2023/04/26 03:44:49;;;;;;;7.55;2.75;;;;;;;2.48;100.00;101195.56;5028751;28;20205;-48
2023/04/26 03:47:15;;;;;;;9.45;2.10;;;;;;;2.46;100.00;101176.16;5032948;28;20550;-51
2023/04/26 03:49:41;;;;;;;10.15;2.42;;;;;;;2.53;100.00;101192.03;5039385;28;20669;-50
2023/04/26 03:52:08;;;;;;;14.57;2.55;;;;;;;2.53;100.00;101186.75;5045838;28;20187;-47
2023/04/26 03:54:34;;;;;;;9.68;2.03;;;;;;;2.50;100.00;101184.97;5023602;28;20190;-49
2023/04/26 03:56:59;;;;;;;8.20;2.00;;;;;;;2.46;100.00;101186.72;5026056;28;20187;-49
2023/04/26 03:59:25;;;;;;;12.15;2.40;;;;;;;2.48;100.00;101181.44;5038229;28;20187;-48
2023/04/26 04:01:51;;;;;;;7.28;1.90;;;;;;;2.45;100.00;101199.97;5026465;28;20547;-48
2023/04/26 04:04:17;;;;;;;6.20;1.85;;;;;;;2.44;100.00;101193.78;5020155;28;20194;-48
2023/04/26 04:06:46;;;;;;;7.18;2.17;;;;;;;2.51;100.00;101197.31;5040337;28;20190;-50
2023/04/26 04:09:12;;;;;;;6.15;2.20;;;;;;;2.52;100.00;101203.50;5030671;28;20184;-48
2023/04/26 04:11:38;;;;;;;9.57;1.95;;;;;;;2.43;100.00;101189.38;5021675;28;20204;-48
2023/04/26 04:14:03;;;;;;;12.38;1.90;;;;;;;2.36;100.00;101194.66;5030821;28;20169;-51
2023/04/26 04:16:29;;;;;;;9.77;2.03;;;;;;;2.38;100.00;101191.13;5030424;28;20187;-48
2023/04/26 04:18:55;;;;;;;7.18;2.00;;;;;;;2.39;100.00;101192.91;5034241;28;20575;-48
2023/04/26 04:21:20;;;;;;;12.95;2.13;;;;;;;2.42;100.00;101194.66;5028469;28;20263;-49
2023/04/26 04:23:46;;;;;;;6.38;1.80;;;;;;;2.47;100.00;101209.66;5020062;28;20213;-50
2023/04/26 04:26:12;;;;;;;5.90;2.30;;;;;;;2.41;100.00;101195.56;5040302;28;20187;-48
2023/04/26 04:28:40;;;;;;;8.68;1.92;;;;;;;2.52;100.00;101201.72;5030283;28;20183;-48
2023/04/26 04:31:08;;;;;;;6.05;2.00;;;;;;;2.51;100.00;101207.00;5026337;28;20207;-48
2023/04/26 04:33:34;;;;;;;9.65;2.10;;;;;;;2.56;100.00;101194.66;5032573;28;20197;-48
2023/04/26 04:36:00;;;;;;;4.85;2.10;;;;;;;2.69;100.00;101199.09;5040514;28;20175;-48
2023/04/26 04:38:28;;;;;;;13.13;3.08;;;;;;;2.74;100.00;101197.34;5035418;28;20184;-49
2023/04/26 04:40:53;;;;;;;8.65;2.85;;;;;;;3.11;100.00;101204.38;5027459;28;20591;-47
2023/04/26 04:43:20;;;;;;;13.07;2.20;;;;;;;3.41;100.00;101196.34;5031466;28;20180;-49
2023/04/26 04:45:48;;;;;;;7.70;2.33;;;;;;;3.70;100.00;101204.19;5032380;28;20211;-49
2023/04/26 04:48:14;;;;;;;11.40;2.58;;;;;;;3.78;100.00;101196.19;5030423;28;20776;-48
2023/04/26 04:50:40;;;;;;;6.75;2.05;;;;;;;4.10;100.00;101198.69;5014880;28;20200;-48
2023/04/26 04:53:11;;;;;;;9.88;1.95;;;;;;;4.35;100.00;101198.53;5032759;28;20329;-48
2023/04/26 04:55:37;;;;;;;8.35;2.13;;;;;;;4.45;100.00;101194.06;5032673;28;20171;-48
2023/04/26 04:58:03;;;;;;;7.50;2.03;;;;;;;4.58;100.00;101195.72;5028310;28;20187;-51
2023/04/26 05:00:30;;;;;;;9.57;2.22;;;;;;;4.28;99.08;101195.03;5031609;28;20204;-48
2023/04/26 05:03:03;;;;;;;10.45;2.25;;;;;;;4.33;98.00;101197.69;5034174;28;20191;-50
2023/04/26 05:05:30;;;;;;;9.63;2.40;;;;;;;4.36;97.03;101192.34;5037417;28;20201;-50
2023/04/26 05:07:55;;;;;;;4.15;1.65;;;;;;;4.54;96.29;101184.25;5033582;28;20191;-50
2023/04/26 05:10:21;;;;;;;6.00;2.17;;;;;;;4.46;95.45;101194.06;5027567;28;20287;-48
2023/04/26 05:12:47;;;;;;;10.88;2.33;;;;;;;4.51;94.53;101183.41;5034882;28;20232;-48
2023/04/26 05:15:12;;;;;;;7.85;2.22;;;;;;;4.57;93.90;101183.38;5036229;28;20171;-48
2023/04/26 05:17:38;;;;;;;8.38;2.33;;;;;;;4.91;93.22;101186.59;5029580;28;20309;-49
2023/04/26 05:20:15;;;;;;;8.63;2.05;;;;;;;4.80;92.28;101175.19;5011665;28;20360;-48
2023/04/26 05:22:42;;;;;;;7.25;2.33;;;;;;;4.99;91.96;101183.88;5043026;28;20688;-50
2023/04/26 05:25:09;;;;;;;13.20;2.55;;;;;;;5.07;91.32;101179.38;5043749;28;20230;-48
2023/04/26 05:27:36;;;;;;;10.18;2.20;;;;;;;5.05;90.82;101177.59;5035158;28;20387;-46
2023/04/26 05:30:31;;;;;;;5.90;1.95;;;;;;;5.22;90.74;101183.63;5023367;28;20552;-48
2023/04/26 05:33:29;;;;;;;4.80;1.92;;;;;;;5.29;90.17;101180.03;4991711;28;20331;-47
2023/04/26 05:36:08;;;;;;;10.25;2.30;;;;;;;5.20;89.40;101181.88;5027175;28;20184;-50
2023/04/26 05:38:36;;;;;;;8.15;1.88;;;;;;;5.61;88.83;101185.88;5034363;28;20248;-48
2023/04/26 05:41:01;;;;;;;7.25;1.70;;;;;;;5.77;87.64;101185.66;5039711;28;20197;-51
2023/04/26 05:43:27;;;;;;;9.93;2.00;;;;;;;5.74;87.12;101166.22;5031783;28;20188;-46
2023/04/26 05:45:54;;;;;;;9.55;2.28;;;;;;;5.60;86.58;101185.00;5030078;28;20693;-46
2023/04/26 05:48:21;;;;;;;7.13;2.38;;;;;;;5.86;85.22;101174.03;5027015;28;20240;-47
2023/04/26 05:50:47;;;;;;;12.25;2.40;;;;;;;5.93;84.77;101172.16;5016359;28;20211;-48
2023/04/26 05:53:14;;;;;;;5.60;1.67;;;;;;;6.22;84.38;101169.13;5034105;28;20224;-47
2023/04/26 05:55:41;;;;;;;4.75;1.90;;;;;;;6.33;83.46;101161.84;5021949;28;20207;-48
2023/04/26 05:58:07;;;;;;;8.88;2.60;;;;;;;6.66;82.77;101164.88;5022190;28;20557;-47
2023/04/26 06:00:33;;;;;;;6.90;2.10;;;;;;;6.94;81.59;101151.97;5037352;28;20199;-50
2023/04/26 06:02:59;;;;;;;10.18;2.28;;;;;;;7.08;80.57;101145.50;5029487;28;20562;-46
2023/04/26 06:05:25;;;;;;;7.50;2.05;;;;;;;6.97;79.83;101143.91;5028702;28;20192;-48
2023/04/26 06:07:51;;;;;;;6.40;2.35;;;;;;;7.39;78.86;101146.69;5028965;28;20259;-50
2023/04/26 06:10:16;;;;;;;6.18;2.20;;;;;;;7.42;77.71;101132.41;5037440;28;20204;-47
2023/04/26 06:12:43;;;;;;;9.32;2.45;;;;;;;7.54;77.13;101144.59;5021103;28;20685;-47
2023/04/26 06:15:10;;;;;;;6.80;2.10;;;;;;;7.73;76.52;101140.63;5027177;28;20177;-49
2023/04/26 06:17:37;;;;;;;7.10;1.92;;;;;;;7.72;76.00;101133.56;5026584;28;20760;-48
2023/04/26 06:20:06;;;;;;;5.80;2.00;;;;;;;7.93;75.42;101148.19;5036342;28;20202;-49
2023/04/26 06:22:32;;;;;;;7.65;2.15;;;;;;;7.99;74.68;101128.50;5034809;28;20194;-46
2023/04/26 06:24:57;;;;;;;7.85;2.08;;;;;;;8.03;74.51;101143.53;5025694;28;20192;-47
2023/04/26 06:27:23;;;;;;;9.95;2.28;;;;;;;8.14;73.65;101122.81;5032858;28;20689;-48
2023/04/26 06:29:49;;;;;;;10.00;2.55;;;;;;;7.87;73.73;101129.69;5032410;28;20208;-47
2023/04/26 06:32:16;;;;;;;7.35;2.35;;;;;;;8.56;73.35;101140.53;5034382;28;20272;-47
2023/04/26 06:34:44;;;;;;;7.13;2.00;;;;;;;8.53;71.96;101120.13;5030689;28;20165;-47
2023/04/26 06:37:10;;;;;;;8.10;2.38;;;;;;;8.27;71.30;101125.22;5033695;28;20180;-48
2023/04/26 06:39:38;;;;;;;9.32;2.58;;;;;;;7.71;70.71;101115.78;5041098;28;20650;-49
2023/04/26 06:42:05;;;;;;;8.52;2.40;;;;;;;8.33;71.34;101125.03;5040978;28;20188;-47
2023/04/26 06:44:48;;;;;;;14.32;2.47;;;;;;;8.48;71.50;101142.53;5017895;28;20204;-47
2023/04/26 06:47:15;;;;;;;5.28;2.10;;;;;;;8.50;70.56;101127.34;5037767;28;20183;-47
2023/04/26 06:49:41;;;;;;;7.80;2.20;;;;;;;8.47;70.04;101127.44;5029676;28;20327;-47
2023/04/26 06:52:06;;;;;;;7.15;2.30;;;;;;;8.94;69.69;101114.63;5029341;28;20179;-46
2023/04/26 06:54:32;;;;;;;10.23;2.45;;;;;;;8.71;68.92;101107.22;5036592;28;20212;-47
2023/04/26 06:56:58;;;;;;;11.63;2.45;;;;;;;8.91;68.91;101118.25;5047010;28;20210;-49
2023/04/26 06:59:23;;;;;;;9.48;2.67;;;;;;;9.23;69.11;101120.06;5041019;28;20698;-48
2023/04/26 07:01:49;;;;;;;5.47;2.53;;;;;;;8.76;68.38;101103.50;5024765;28;20267;-48
2023/04/26 07:04:17;;;;;;;10.32;2.15;;;;;;;9.40;67.75;101103.53;5028419;28;20658;-48
2023/04/26 07:06:43;;;;;;;11.00;2.15;;;;;;;9.39;66.69;101087.53;5036176;28;20202;-47
2023/04/26 07:09:08;;;;;;;15.23;2.67;;;;;;;9.62;66.84;101108.22;5028629;28;20181;-50
2023/04/26 07:11:34;;;;;;;7.40;1.88;;;;;;;9.75;65.96;101103.41;5033187;28;20199;-49
2023/04/26 07:14:00;;;;;;;8.05;2.58;;;;;;;9.43;65.35;101092.75;5045489;28;20260;-47
2023/04/26 07:16:26;;;;;;;9.25;2.35;;;;;;;9.96;64.72;101093.84;5030409;28;20188;-48
2023/04/26 07:18:52;;;;;;;11.32;2.47;;;;;;;9.47;64.19;101085.53;5033382;28;20172;-48
2023/04/26 07:21:17;;;;;;;11.75;2.00;;;;;;;9.41;64.74;101083.88;5029817;28;20200;-49
2023/04/26 07:23:43;;;;;;;8.05;2.13;;;;;;;8.65;65.21;101078.88;5041341;28;20180;-49
2023/04/26 07:26:12;;;;;;;10.07;2.30;;;;;;;8.60;65.81;101100.38;5039274;28;20247;-50
2023/04/26 07:28:37;;;;;;;10.43;2.03;;;;;;;8.73;65.68;101100.06;5028020;28;20188;-49
2023/04/26 07:31:03;;;;;;;8.55;1.98;;;;;;;8.39;66.21;101119.56;5021187;28;20261;-46
2023/04/26 07:33:29;;;;;;;4.93;1.50;;;;;;;8.57;67.13;101119.16;5038780;28;20191;-50
2023/04/26 07:35:56;;;;;;;5.38;1.85;;;;;;;8.12;66.99;101123.78;5034126;28;20547;-48
2023/04/26 07:38:23;;;;;;;6.95;2.15;;;;;;;9.04;67.38;101134.84;5032661;28;20260;-49
2023/04/26 07:40:49;;;;;;;5.38;1.75;;;;;;;9.03;66.74;101122.38;5031928;28;20248;-46
2023/04/26 07:43:15;;;;;;;10.18;1.83;;;;;;;8.65;65.81;101106.44;5037660;28;20171;-46
2023/04/26 07:45:41;;;;;;;7.47;1.90;;;;;;;8.05;65.53;101109.69;5037177;28;20207;-46
2023/04/26 07:48:07;;;;;;;5.95;1.40;;;;;;;7.91;65.53;101115.34;5031534;28;20188;-46
2023/04/26 07:50:32;;;;;;;7.68;2.22;;;;;;;8.10;65.13;101102.47;5026612;28;20204;-45
2023/04/26 07:52:58;;;;;;;5.85;1.42;;;;;;;8.73;64.29;101108.06;5038145;28;20172;-45
2023/04/26 07:55:23;;;;;;;7.15;1.58;;;;;;;8.25;63.44;101103.88;5040137;28;20183;-46
2023/04/26 07:57:49;;;;;;;4.05;1.40;;;;;;;9.32;62.51;101092.19;5027593;28;20590;-47
2023/04/26 08:00:16;;;;;;;6.28;1.52;;;;;;;9.20;62.38;101082.69;5029377;28;20218;-46
2023/04/26 08:02:41;;;;;;;4.72;1.70;;;;;;;8.92;62.00;101081.72;5030020;28;20197;-48
2023/04/26 08:05:07;;;;;;;6.10;1.50;;;;;;;9.11;62.62;101095.47;5030918;28;20658;-46
2023/04/26 08:07:33;;;;;;;9.55;1.67;;;;;;;9.45;62.15;101100.72;5029887;28;20194;-48
2023/04/26 08:09:58;;;;;;;4.18;1.50;;;;;;;9.79;61.58;101094.34;5034919;28;20203;-46
2023/04/26 08:12:24;;;;;;;8.30;1.80;;;;;;;10.10;60.49;101076.41;5038938;28;20187;-46
2023/04/26 08:14:50;;;;;;;5.97;1.50;;;;;;;9.35;60.55;101073.38;5039055;28;20176;-47
2023/04/26 08:17:15;;;;;;;8.55;1.85;;;;;;;9.66;61.36;101088.50;5023803;28;20182;-45
2023/04/26 08:19:40;;;;;;;3.80;1.45;;;;;;;10.11;61.11;101091.53;5032922;28;20183;-47
2023/04/26 08:22:06;;;;;;;10.10;1.88;;;;;;;9.95;60.07;101076.00;5031056;28;20234;-46
2023/04/26 08:24:32;;;;;;;10.25;1.92;;;;;;;8.94;61.25;101086.09;5034847;28;20187;-47
2023/04/26 08:26:58;;;;;;;4.43;1.70;;;;;;;9.66;60.96;101096.53;5029619;28;20214;-43
2023/04/26 08:29:25;;;;;;;4.28;1.73;;;;;;;9.60;60.46;101099.38;5042085;28;20627;-46
2023/04/26 08:31:51;;;;;;;6.63;1.50;;;;;;;10.31;60.67;101107.00;5031692;28;20171;-45
2023/04/26 08:34:16;;;;;;;6.35;1.27;;;;;;;10.75;60.53;101105.56;5034526;28;20165;-45
2023/04/26 08:36:42;;;;;;;4.70;1.50;;;;;;;10.68;58.82;101095.03;5020648;28;20268;-46
2023/04/26 08:39:08;;;;;;;3.28;1.30;;;;;;;10.53;58.10;101079.50;5032254;28;20180;-47
2023/04/26 08:41:41;;;;;;;4.05;1.30;;;;;;;10.59;57.24;101068.56;5035101;28;20224;-44
2023/04/26 08:44:08;;;;;;;3.58;1.08;;;;;;;9.71;58.39;101075.88;5023622;28;20196;-46
2023/04/26 08:46:40;;;;;;;4.93;1.40;;;;;;;8.78;59.17;101074.97;5033370;28;20203;-46
2023/04/26 08:49:22;;;;;;;3.95;0.95;;;;;;;10.11;59.05;101096.03;5027227;28;20183;-47
2023/04/26 08:51:49;;;;;;;4.85;1.30;;;;;;;10.40;58.45;101079.03;5031272;28;20200;-47
2023/04/26 08:54:17;;;;;;;5.40;1.20;;;;;;;10.12;57.72;101073.66;5026789;28;20573;-44
2023/04/26 08:56:43;;;;;;;6.10;1.50;;;;;;;10.36;56.84;101058.63;5030096;28;21186;-48
2023/04/26 08:59:08;;;;;;;4.30;1.38;;;;;;;10.77;56.97;101069.72;5041127;28;20616;-46
2023/04/26 09:01:38;;;;;;;2.83;0.95;;;;;;;10.93;56.53;101067.38;5033420;28;20276;-47
2023/04/26 09:04:04;;;;;;;3.15;1.30;;;;;;;10.53;55.21;101050.03;5020643;28;20192;-46
2023/04/26 09:06:31;;;;;;;2.38;1.08;;;;;;;11.24;55.48;101047.47;5029805;28;20602;-46
2023/04/26 09:08:57;;;;;;;4.55;1.30;;;;;;;11.47;55.49;101051.97;5030167;28;20187;-47
2023/04/26 09:11:23;;;;;;;3.40;1.10;;;;;;;11.64;54.72;101054.88;5033892;28;20282;-43
2023/04/26 09:13:48;;;;;;;4.97;1.13;;;;;;;11.07;54.98;101043.63;5027595;28;20618;-45
2023/04/26 09:16:14;;;;;;;5.38;1.13;;;;;;;11.49;54.48;101048.31;5025357;28;20296;-45
2023/04/26 09:18:56;;;;;;;3.13;0.98;;;;;;;11.35;53.82;101031.88;5021051;28;20278;-44
2023/04/26 09:21:22;;;;;;;5.63;1.50;;;;;;;10.29;54.88;101030.31;5029473;28;20585;-45
2023/04/26 09:23:58;;;;;;;7.10;1.88;;;;;;;10.49;56.05;101060.00;5022300;28;20192;-44
2023/04/26 09:26:23;;;;;;;2.95;1.10;;;;;;;10.51;55.19;101050.06;5032984;28;20262;-45
2023/04/26 09:28:49;;;;;;;5.18;1.17;;;;;;;10.31;55.42;101045.41;5039560;28;20629;-46
2023/04/26 09:31:42;;;;;;;3.70;1.30;;;;;;;10.14;57.38;101073.63;5029639;28;20585;-45
2023/04/26 09:34:09;;;;;;;4.18;1.35;;;;;;;10.80;58.09;101100.91;5026500;28;20183;-43
2023/04/26 09:36:52;;;;;;;4.80;1.30;;;;;;;10.47;57.54;101085.97;5026906;28;20255;-46
2023/04/26 09:39:38;;;;;;;3.50;1.15;;;;;;;10.36;57.10;101084.53;5032476;28;20249;-45
2023/04/26 09:42:04;;;;;;;4.60;1.52;;;;;;;9.81;58.45;101092.50;5028191;28;20195;-46
2023/04/26 09:44:31;;;;;;;3.78;1.10;;;;;;;9.17;61.87;101130.91;5030602;28;20767;-47
2023/04/26 09:47:01;;;;;;;5.95;1.23;;;;;;;8.99;64.12;101158.16;5037125;28;20247;-49
2023/04/26 09:49:30;;;;;;;5.53;1.40;;;;;;;8.69;65.73;101184.72;5015352;28;20663;-48
2023/04/26 09:52:03;;;;;;;3.55;1.13;;;;;;;8.99;66.56;101223.16;5024633;28;20216;-50
2023/04/26 09:55:01;;;;;;;4.65;1.13;;;;;;;7.81;68.54;101242.72;5032232;28;20262;-48
2023/04/26 09:57:26;;;;;;;6.32;1.35;;;;;;;6.95;71.74;101289.59;5034454;28;20176;-49
2023/04/26 09:59:53;;;;;;;9.15;1.42;;;;;;;6.00;74.98;101320.16;5034337;28;20219;-51
2023/04/26 10:02:24;;;;;;;5.85;1.38;;;;;;;5.32;77.93;101331.44;5031612;28;20211;-47
2023/04/26 10:04:55;;;;;;;5.75;1.20;;;;;;;5.84;80.46;101345.09;5029353;28;20655;-50
2023/04/26 10:07:23;;;;;;;4.43;1.02;;;;;;;6.32;83.33;101348.16;5036842;28;20192;-48
2023/04/26 10:09:49;;;;;;;3.92;0.77;;;;;;;6.77;84.84;101349.31;5025882;28;20211;-49
2023/04/26 10:12:17;;;;;;;1.60;0.90;;;;;;;7.57;85.03;101348.06;5031132;28;20211;-47
2023/04/26 10:14:43;;;;;;;1.55;0.63;;;;;;;8.06;86.34;101338.28;5039713;28;20163;-44
2023/04/26 10:17:12;;;;;;;3.33;0.80;;;;;;;8.37;86.26;101329.63;5032532;28;20214;-45
2023/04/26 10:19:43;;;;;;;1.50;0.65;;;;;;;8.57;85.94;101332.81;5024465;28;20201;-46
2023/04/26 10:22:24;;;;;;;2.70;0.50;;;;;;;9.34;85.16;101327.47;5023221;28;20671;-47
2023/04/26 10:24:52;;;;;;;1.48;0.93;;;;;;;9.59;84.49;101319.66;5031658;28;20217;-45
2023/04/26 10:27:55;;;;;;;6.68;1.20;;;;;;;10.04;83.60;101305.97;5035076;28;20746;-45
2023/04/26 10:30:21;;;;;;;3.03;0.90;;;;;;;9.65;79.38;101272.22;5027520;28;20212;-44
2023/04/26 10:32:59;;;;;;;2.75;1.15;;;;;;;9.11;76.68;101253.16;5044796;28;20226;-46
2023/04/26 10:35:26;;;;;;;5.07;0.90;;;;;;;9.69;77.17;101254.31;5034424;28;20183;-46
2023/04/26 10:38:00;;;;;;;2.72;0.73;;;;;;;9.72;75.15;101235.47;5022505;28;20656;-46
2023/04/26 10:40:28;;;;;;;2.63;0.95;;;;;;;9.36;74.90;101238.25;5032249;28;20274;-46
2023/04/26 10:43:08;;;;;;;5.50;1.15;;;;;;;9.13;74.73;101248.66;5035057;28;20624;-45
2023/04/26 10:45:35;;;;;;;4.10;1.08;;;;;;;8.84;74.13;101250.28;5037756;28;20203;-48
2023/04/26 10:48:26;;;;;;;5.40;1.58;;;;;;;8.26;75.77;101271.13;5030144;28;20196;-47
2023/04/26 10:51:01;;;;;;;2.25;0.82;;;;;;;7.96;76.29;101281.56;5026708;28;20583;-46
2023/04/26 10:53:56;;;;;;;4.07;1.10;;;;;;;8.13;76.21;101281.19;5039402;28;20192;-46
2023/04/26 10:56:24;;;;;;;3.47;0.90;;;;;;;8.54;75.11;101265.22;5026682;28;20200;-47
2023/04/26 10:59:10;;;;;;;3.22;1.02;;;;;;;8.46;74.07;101249.34;5028508;28;20819;-45
2023/04/26 11:01:36;;;;;;;2.50;1.05;;;;;;;8.80;73.43;101253.94;5018057;28;20195;-45
2023/04/26 11:04:10;;;;;;;2.90;0.75;;;;;;;8.51;71.97;101228.78;5036025;28;20195;-44
2023/04/26 11:06:50;;;;;;;4.13;0.93;;;;;;;8.55;70.62;101230.47;5029605;28;20638;-48
2023/04/26 11:09:36;;;;;;;5.55;0.98;;;;;;;8.84;68.60;101207.53;5033523;28;20839;-47
2023/04/26 11:12:13;;;;;;;3.55;1.05;;;;;;;9.23;67.38;101197.59;5034884;28;20195;-46
2023/04/26 11:14:44;;;;;;;3.92;0.85;;;;;;;9.87;65.88;101191.34;5025811;28;20694;-48
2023/04/26 11:17:10;;;;;;;3.45;0.85;;;;;;;10.19;64.69;101179.69;5026817;28;20218;-46
2023/04/26 11:19:36;;;;;;;5.50;0.80;;;;;;;9.26;63.68;101156.53;5035433;28;20190;-46
2023/04/26 11:22:05;;;;;;;3.97;1.13;;;;;;;9.35;64.14;101163.41;5034614;28;20702;-46
2023/04/26 11:24:31;;;;;;;4.55;1.27;;;;;;;8.94;64.29;101176.94;5024875;28;20210;-45
2023/04/26 11:26:58;;;;;;;4.93;1.13;;;;;;;8.70;66.30;101204.28;5032300;28;20196;-47
2023/04/26 11:29:24;;;;;;;3.13;0.77;;;;;;;8.13;69.57;101250.94;5034724;28;20179;-46
2023/04/26 11:31:51;;;;;;;2.90;0.80;;;;;;;7.69;71.39;101268.75;5042417;28;20194;-45
2023/04/26 11:34:22;;;;;;;3.60;0.70;;;;;;;7.54;72.87;101293.91;5038545;28;20253;-45